sensor_id;sensor_type;location;lat;lon;timestamp;pressure;altitude;pressure_sealevel;temperature;humidity
32638;BME280;19045;52.268;10.506;2022-07-23T00:01:07;100869.91;;;17.08;88.83
32638;BME280;19045;52.268;10.506;2022-07-23T00:03:34;100874.16;;;17.14;87.56
32638;BME280;19045;52.268;10.506;2022-07-23T00:06:00;100870.00;;;16.98;88.69
32638;BME280;19045;52.268;10.506;2022-07-23T00:08:27;100891.72;;;16.98;89.21
32638;BME280;19045;52.268;10.506;2022-07-23T00:10:54;100880.34;;;16.96;89.59
32638;BME280;19045;52.268;10.506;2022-07-23T00:13:22;100885.31;;;16.89;89.88
32638;BME280;19045;52.268;10.506;2022-07-23T00:15:48;100876.88;;;16.90;89.63
32638;BME280;19045;52.268;10.506;2022-07-23T00:18:15;100870.19;;;16.83;90.04
32638;BME280;19045;52.268;10.506;2022-07-23T00:20:42;100877.00;;;16.80;90.53
32638;BME280;19045;52.268;10.506;2022-07-23T00:23:08;100877.16;;;16.89;90.12
32638;BME280;19045;52.268;10.506;2022-07-23T00:25:35;100878.50;;;16.91;90.08
32638;BME280;19045;52.268;10.506;2022-07-23T00:28:03;100860.06;;;16.88;90.28
32638;BME280;19045;52.268;10.506;2022-07-23T00:30:32;100871.22;;;16.87;90.14
32638;BME280;19045;52.268;10.506;2022-07-23T00:33:02;100877.78;;;16.81;90.24
32638;BME280;19045;52.268;10.506;2022-07-23T00:35:30;100884.94;;;16.72;91.07
32638;BME280;19045;52.268;10.506;2022-07-23T00:37:58;100887.63;;;16.43;93.14
32638;BME280;19045;52.268;10.506;2022-07-23T00:40:26;100872.53;;;16.32;93.65
32638;BME280;19045;52.268;10.506;2022-07-23T00:42:53;100875.06;;;16.23;94.39
32638;BME280;19045;52.268;10.506;2022-07-23T00:45:20;100885.09;;;16.18;94.43
32638;BME280;19045;52.268;10.506;2022-07-23T00:47:48;100881.38;;;16.09;95.43
32638;BME280;19045;52.268;10.506;2022-07-23T00:50:14;100891.97;;;16.10;95.48
32638;BME280;19045;52.268;10.506;2022-07-23T00:52:41;100894.41;;;16.07;95.95
32638;BME280;19045;52.268;10.506;2022-07-23T00:55:09;100888.81;;;15.93;96.34
32638;BME280;19045;52.268;10.506;2022-07-23T00:57:37;100896.72;;;15.84;97.70
32638;BME280;19045;52.268;10.506;2022-07-23T01:00:05;100893.97;;;15.89;97.57
32638;BME280;19045;52.268;10.506;2022-07-23T01:02:32;100879.63;;;15.89;97.34
32638;BME280;19045;52.268;10.506;2022-07-23T01:05:00;100888.25;;;15.96;97.34
32638;BME280;19045;52.268;10.506;2022-07-23T01:07:28;100887.38;;;16.06;96.53
32638;BME280;19045;52.268;10.506;2022-07-23T01:09:55;100894.97;;;16.03;96.89
32638;BME280;19045;52.268;10.506;2022-07-23T01:12:22;100890.91;;;16.01;98.26
32638;BME280;19045;52.268;10.506;2022-07-23T01:14:53;100883.28;;;16.08;96.71
32638;BME280;19045;52.268;10.506;2022-07-23T01:17:20;100876.69;;;16.19;95.30
32638;BME280;19045;52.268;10.506;2022-07-23T01:19:47;100873.41;;;16.22;95.44
32638;BME280;19045;52.268;10.506;2022-07-23T01:22:18;100874.00;;;16.19;95.15
32638;BME280;19045;52.268;10.506;2022-07-23T01:24:46;100871.59;;;16.13;96.00
32638;BME280;19045;52.268;10.506;2022-07-23T01:27:13;100878.03;;;16.22;94.83
32638;BME280;19045;52.268;10.506;2022-07-23T01:29:40;100865.28;;;16.22;94.81
32638;BME280;19045;52.268;10.506;2022-07-23T01:32:07;100863.31;;;16.33;94.36
32638;BME280;19045;52.268;10.506;2022-07-23T01:34:33;100857.16;;;16.22;94.62
32638;BME280;19045;52.268;10.506;2022-07-23T01:37:00;100850.41;;;16.20;94.37
32638;BME280;19045;52.268;10.506;2022-07-23T01:39:26;100849.03;;;16.22;93.98
32638;BME280;19045;52.268;10.506;2022-07-23T01:41:54;100850.34;;;16.25;94.37
32638;BME280;19045;52.268;10.506;2022-07-23T01:44:21;100845.75;;;16.25;93.31
32638;BME280;19045;52.268;10.506;2022-07-23T01:46:48;100847.63;;;16.25;93.53
32638;BME280;19045;52.268;10.506;2022-07-23T01:49:14;100844.44;;;16.18;93.33
32638;BME280;19045;52.268;10.506;2022-07-23T01:51:41;100840.41;;;16.15;94.04
32638;BME280;19045;52.268;10.506;2022-07-23T01:54:24;100823.31;;;16.15;95.00
32638;BME280;19045;52.268;10.506;2022-07-23T01:56:51;100818.97;;;16.19;93.79
32638;BME280;19045;52.268;10.506;2022-07-23T01:59:19;100815.16;;;16.20;93.96
32638;BME280;19045;52.268;10.506;2022-07-23T02:01:46;100820.25;;;16.26;93.05
32638;BME280;19045;52.268;10.506;2022-07-23T02:04:13;100831.19;;;16.45;91.74
32638;BME280;19045;52.268;10.506;2022-07-23T02:06:39;100829.38;;;16.35;93.11
32638;BME280;19045;52.268;10.506;2022-07-23T02:09:06;100824.78;;;16.36;92.94
32638;BME280;19045;52.268;10.506;2022-07-23T02:11:33;100816.81;;;16.44;92.23
32638;BME280;19045;52.268;10.506;2022-07-23T02:14:00;100816.53;;;16.46;91.50
32638;BME280;19045;52.268;10.506;2022-07-23T02:16:28;100820.81;;;16.52;90.37
32638;BME280;19045;52.268;10.506;2022-07-23T02:18:55;100825.16;;;16.53;91.14
32638;BME280;19045;52.268;10.506;2022-07-23T02:21:22;100830.63;;;16.48;90.82
32638;BME280;19045;52.268;10.506;2022-07-23T02:23:49;100831.94;;;16.56;90.05
32638;BME280;19045;52.268;10.506;2022-07-23T02:26:16;100834.19;;;16.43;90.91
32638;BME280;19045;52.268;10.506;2022-07-23T02:28:42;100836.09;;;16.43;91.05
32638;BME280;19045;52.268;10.506;2022-07-23T02:31:09;100824.34;;;16.24;92.08
32638;BME280;19045;52.268;10.506;2022-07-23T02:33:37;100815.75;;;16.17;93.15
32638;BME280;19045;52.268;10.506;2022-07-23T02:36:04;100811.97;;;16.13;93.01
32638;BME280;19045;52.268;10.506;2022-07-23T02:38:31;100809.50;;;16.16;93.66
32638;BME280;19045;52.268;10.506;2022-07-23T02:40:58;100812.41;;;16.25;92.40
32638;BME280;19045;52.268;10.506;2022-07-23T02:43:24;100825.69;;;16.26;92.28
32638;BME280;19045;52.268;10.506;2022-07-23T02:45:51;100824.28;;;16.29;91.41
32638;BME280;19045;52.268;10.506;2022-07-23T02:48:18;100812.88;;;16.32;90.91
32638;BME280;19045;52.268;10.506;2022-07-23T02:50:46;100812.13;;;16.26;91.11
32638;BME280;19045;52.268;10.506;2022-07-23T02:53:13;100805.66;;;16.22;91.49
32638;BME280;19045;52.268;10.506;2022-07-23T02:55:39;100813.06;;;16.12;91.72
32638;BME280;19045;52.268;10.506;2022-07-23T02:58:06;100811.78;;;16.04;93.29
32638;BME280;19045;52.268;10.506;2022-07-23T03:00:33;100826.44;;;15.98;92.29
32638;BME280;19045;52.268;10.506;2022-07-23T03:02:59;100830.19;;;15.68;95.06
32638;BME280;19045;52.268;10.506;2022-07-23T03:05:26;100832.19;;;15.52;95.97
32638;BME280;19045;52.268;10.506;2022-07-23T03:07:54;100821.06;;;15.54;96.42
32638;BME280;19045;52.268;10.506;2022-07-23T03:10:20;100834.38;;;15.50;96.39
32638;BME280;19045;52.268;10.506;2022-07-23T03:12:47;100833.88;;;15.28;97.82
32638;BME280;19045;52.268;10.506;2022-07-23T03:15:14;100828.16;;;15.35;97.54
32638;BME280;19045;52.268;10.506;2022-07-23T03:17:40;100853.16;;;15.17;98.22
32638;BME280;19045;52.268;10.506;2022-07-23T03:20:08;100857.25;;;15.09;99.28
32638;BME280;19045;52.268;10.506;2022-07-23T03:22:38;100843.47;;;15.11;98.97
32638;BME280;19045;52.268;10.506;2022-07-23T03:25:08;100848.84;;;15.16;99.06
32638;BME280;19045;52.268;10.506;2022-07-23T03:27:34;100851.84;;;15.09;98.57
32638;BME280;19045;52.268;10.506;2022-07-23T03:30:01;100847.25;;;15.10;99.09
32638;BME280;19045;52.268;10.506;2022-07-23T03:32:28;100847.25;;;15.10;98.71
32638;BME280;19045;52.268;10.506;2022-07-23T03:34:55;100853.47;;;15.10;98.67
32638;BME280;19045;52.268;10.506;2022-07-23T03:37:21;100848.56;;;15.12;98.49
32638;BME280;19045;52.268;10.506;2022-07-23T03:39:48;100846.38;;;15.24;98.04
32638;BME280;19045;52.268;10.506;2022-07-23T03:42:16;100850.16;;;15.23;97.78
32638;BME280;19045;52.268;10.506;2022-07-23T03:44:43;100851.25;;;15.22;98.15
32638;BME280;19045;52.268;10.506;2022-07-23T03:47:10;100839.63;;;15.12;98.36
32638;BME280;19045;52.268;10.506;2022-07-23T03:49:36;100847.47;;;15.18;98.47
32638;BME280;19045;52.268;10.506;2022-07-23T03:52:04;100857.75;;;15.16;98.66
32638;BME280;19045;52.268;10.506;2022-07-23T03:54:30;100844.50;;;15.15;98.47
32638;BME280;19045;52.268;10.506;2022-07-23T03:56:57;100838.25;;;15.19;98.29
32638;BME280;19045;52.268;10.506;2022-07-23T03:59:25;100835.00;;;15.22;98.72
32638;BME280;19045;52.268;10.506;2022-07-23T04:01:52;100826.03;;;15.32;98.31
32638;BME280;19045;52.268;10.506;2022-07-23T04:04:19;100820.84;;;15.40;98.06
32638;BME280;19045;52.268;10.506;2022-07-23T04:06:45;100819.16;;;15.55;96.96
32638;BME280;19045;52.268;10.506;2022-07-23T04:09:12;100820.75;;;15.61;95.34
32638;BME280;19045;52.268;10.506;2022-07-23T04:11:39;100820.28;;;15.48;96.31
32638;BME280;19045;52.268;10.506;2022-07-23T04:14:05;100818.97;;;15.36;96.97
32638;BME280;19045;52.268;10.506;2022-07-23T04:16:34;100814.31;;;15.41;97.00
32638;BME280;19045;52.268;10.506;2022-07-23T04:19:01;100818.91;;;15.46;96.84
32638;BME280;19045;52.268;10.506;2022-07-23T04:21:29;100837.09;;;15.40;97.14
32638;BME280;19045;52.268;10.506;2022-07-23T04:23:56;100833.00;;;15.43;97.05
32638;BME280;19045;52.268;10.506;2022-07-23T04:26:23;100835.97;;;15.46;97.11
32638;BME280;19045;52.268;10.506;2022-07-23T04:28:49;100845.19;;;15.50;96.78
32638;BME280;19045;52.268;10.506;2022-07-23T04:31:16;100848.19;;;15.44;97.23
32638;BME280;19045;52.268;10.506;2022-07-23T04:33:44;100859.25;;;15.52;96.94
32638;BME280;19045;52.268;10.506;2022-07-23T04:36:11;100860.31;;;15.57;97.33
32638;BME280;19045;52.268;10.506;2022-07-23T04:38:37;100853.81;;;15.58;97.10
32638;BME280;19045;52.268;10.506;2022-07-23T04:41:04;100852.47;;;15.55;97.32
32638;BME280;19045;52.268;10.506;2022-07-23T04:43:31;100830.22;;;15.63;98.81
32638;BME280;19045;52.268;10.506;2022-07-23T04:45:58;100816.56;;;15.78;98.87
32638;BME280;19045;52.268;10.506;2022-07-23T04:48:24;100818.06;;;15.94;97.37
32638;BME280;19045;52.268;10.506;2022-07-23T04:50:52;100828.81;;;16.10;95.08
32638;BME280;19045;52.268;10.506;2022-07-23T04:53:19;100832.91;;;16.02;96.07
32638;BME280;19045;52.268;10.506;2022-07-23T04:55:46;100827.19;;;16.09;96.83
32638;BME280;19045;52.268;10.506;2022-07-23T04:58:13;100823.09;;;16.11;96.33
32638;BME280;19045;52.268;10.506;2022-07-23T05:00:39;100808.97;;;16.14;95.70
32638;BME280;19045;52.268;10.506;2022-07-23T05:03:06;100811.34;;;16.21;96.10
32638;BME280;19045;52.268;10.506;2022-07-23T05:05:33;100820.50;;;16.30;96.53
32638;BME280;19045;52.268;10.506;2022-07-23T05:08:01;100821.25;;;16.35;95.66
32638;BME280;19045;52.268;10.506;2022-07-23T05:10:27;100839.31;;;16.45;95.77
32638;BME280;19045;52.268;10.506;2022-07-23T05:12:54;100841.41;;;16.58;93.48
32638;BME280;19045;52.268;10.506;2022-07-23T05:15:21;100844.41;;;16.51;93.51
32638;BME280;19045;52.268;10.506;2022-07-23T05:17:47;100845.06;;;16.43;95.13
32638;BME280;19045;52.268;10.506;2022-07-23T05:20:14;100840.19;;;16.40;95.02
32638;BME280;19045;52.268;10.506;2022-07-23T05:22:41;100839.66;;;16.38;96.14
32638;BME280;19045;52.268;10.506;2022-07-23T05:25:09;100852.56;;;16.51;96.08
32638;BME280;19045;52.268;10.506;2022-07-23T05:27:36;100847.13;;;16.57;96.84
32638;BME280;19045;52.268;10.506;2022-07-23T05:30:03;100853.53;;;16.66;96.57
32638;BME280;19045;52.268;10.506;2022-07-23T05:32:31;100853.03;;;16.64;94.26
32638;BME280;19045;52.268;10.506;2022-07-23T05:34:58;100861.91;;;16.35;96.39
32638;BME280;19045;52.268;10.506;2022-07-23T05:37:25;100854.78;;;16.44;96.29
32638;BME280;19045;52.268;10.506;2022-07-23T05:39:51;100855.13;;;16.38;95.96
32638;BME280;19045;52.268;10.506;2022-07-23T05:42:19;100865.13;;;16.42;96.49
32638;BME280;19045;52.268;10.506;2022-07-23T05:44:46;100852.56;;;16.18;97.50
32638;BME280;19045;52.268;10.506;2022-07-23T05:47:13;100858.63;;;16.10;97.97
32638;BME280;19045;52.268;10.506;2022-07-23T05:49:40;100844.69;;;16.21;97.07
32638;BME280;19045;52.268;10.506;2022-07-23T05:52:07;100847.88;;;16.28;96.65
32638;BME280;19045;52.268;10.506;2022-07-23T05:54:34;100846.31;;;16.51;95.70
32638;BME280;19045;52.268;10.506;2022-07-23T05:57:02;100847.53;;;16.69;94.37
32638;BME280;19045;52.268;10.506;2022-07-23T05:59:30;100849.50;;;17.11;92.35
32638;BME280;19045;52.268;10.506;2022-07-23T06:01:57;100849.91;;;17.23;91.39
32638;BME280;19045;52.268;10.506;2022-07-23T06:04:23;100849.25;;;17.31;90.07
32638;BME280;19045;52.268;10.506;2022-07-23T06:06:51;100855.72;;;17.77;87.53
32638;BME280;19045;52.268;10.506;2022-07-23T06:09:17;100853.47;;;18.17;86.64
32638;BME280;19045;52.268;10.506;2022-07-23T06:11:44;100849.81;;;18.40;84.92
32638;BME280;19045;52.268;10.506;2022-07-23T06:14:11;100849.50;;;18.74;83.41
32638;BME280;19045;52.268;10.506;2022-07-23T06:16:39;100858.31;;;18.98;81.00
32638;BME280;19045;52.268;10.506;2022-07-23T06:19:05;100860.00;;;19.21;80.14
32638;BME280;19045;52.268;10.506;2022-07-23T06:21:32;100866.06;;;19.32;78.84
32638;BME280;19045;52.268;10.506;2022-07-23T06:23:59;100862.22;;;19.46;77.38
32638;BME280;19045;52.268;10.506;2022-07-23T06:26:25;100868.06;;;19.53;77.36
32638;BME280;19045;52.268;10.506;2022-07-23T06:28:52;100864.03;;;19.65;76.75
32638;BME280;19045;52.268;10.506;2022-07-23T06:31:19;100860.13;;;19.79;76.26
32638;BME280;19045;52.268;10.506;2022-07-23T06:33:47;100866.41;;;20.02;75.33
32638;BME280;19045;52.268;10.506;2022-07-23T06:36:13;100857.97;;;20.12;73.98
32638;BME280;19045;52.268;10.506;2022-07-23T06:38:40;100865.91;;;20.22;72.89
32638;BME280;19045;52.268;10.506;2022-07-23T06:41:07;100863.16;;;20.36;73.07
32638;BME280;19045;52.268;10.506;2022-07-23T06:43:33;100862.97;;;20.54;72.10
32638;BME280;19045;52.268;10.506;2022-07-23T06:46:00;100858.63;;;20.53;71.65
32638;BME280;19045;52.268;10.506;2022-07-23T06:48:27;100859.78;;;20.61;71.33
32638;BME280;19045;52.268;10.506;2022-07-23T06:50:55;100853.50;;;20.60;70.62
32638;BME280;19045;52.268;10.506;2022-07-23T06:53:22;100860.03;;;20.82;70.22
32638;BME280;19045;52.268;10.506;2022-07-23T06:55:48;100862.81;;;20.90;69.25
32638;BME280;19045;52.268;10.506;2022-07-23T06:58:15;100854.34;;;21.09;67.43
32638;BME280;19045;52.268;10.506;2022-07-23T07:00:43;100857.19;;;21.26;66.37
32638;BME280;19045;52.268;10.506;2022-07-23T07:03:10;100860.72;;;21.27;66.72
32638;BME280;19045;52.268;10.506;2022-07-23T07:05:37;100856.72;;;21.41;65.27
32638;BME280;19045;52.268;10.506;2022-07-23T07:08:06;100860.25;;;21.33;65.85
32638;BME280;19045;52.268;10.506;2022-07-23T07:10:33;100856.25;;;21.48;65.49
32638;BME280;19045;52.268;10.506;2022-07-23T07:12:59;100865.75;;;21.67;65.14
32638;BME280;19045;52.268;10.506;2022-07-23T07:15:26;100860.00;;;21.86;62.72
32638;BME280;19045;52.268;10.506;2022-07-23T07:17:53;100864.34;;;21.87;62.00
32638;BME280;19045;52.268;10.506;2022-07-23T07:20:19;100864.38;;;21.96;61.93
32638;BME280;19045;52.268;10.506;2022-07-23T07:22:46;100873.88;;;21.90;62.60
32638;BME280;19045;52.268;10.506;2022-07-23T07:25:14;100877.88;;;22.18;61.78
32638;BME280;19045;52.268;10.506;2022-07-23T07:27:41;100883.13;;;22.57;58.85
32638;BME280;19045;52.268;10.506;2022-07-23T07:30:10;100881.03;;;22.54;58.21
32638;BME280;19045;52.268;10.506;2022-07-23T07:32:37;100884.00;;;22.06;60.15
32638;BME280;19045;52.268;10.506;2022-07-23T07:35:05;100888.13;;;21.78;59.89
32638;BME280;19045;52.268;10.506;2022-07-23T07:37:32;100891.66;;;21.53;60.12
32638;BME280;19045;52.268;10.506;2022-07-23T07:39:58;100890.53;;;21.62;60.37
32638;BME280;19045;52.268;10.506;2022-07-23T07:42:26;100889.63;;;22.27;58.95
32638;BME280;19045;52.268;10.506;2022-07-23T07:44:53;100892.34;;;22.53;57.93
32638;BME280;19045;52.268;10.506;2022-07-23T07:47:20;100894.81;;;22.92;56.54
32638;BME280;19045;52.268;10.506;2022-07-23T07:49:46;100893.72;;;22.85;56.54
32638;BME280;19045;52.268;10.506;2022-07-23T07:52:13;100902.13;;;22.62;56.06
32638;BME280;19045;52.268;10.506;2022-07-23T07:54:40;100896.38;;;22.38;56.59
32638;BME280;19045;52.268;10.506;2022-07-23T07:57:08;100897.16;;;22.73;56.45
32638;BME280;19045;52.268;10.506;2022-07-23T07:59:36;100897.16;;;23.11;54.94
32638;BME280;19045;52.268;10.506;2022-07-23T08:02:02;100888.06;;;23.57;51.84
32638;BME280;19045;52.268;10.506;2022-07-23T08:04:29;100903.16;;;23.42;52.89
32638;BME280;19045;52.268;10.506;2022-07-23T08:06:56;100903.88;;;23.22;53.54
32638;BME280;19045;52.268;10.506;2022-07-23T08:09:22;100907.16;;;23.07;53.37
32638;BME280;19045;52.268;10.506;2022-07-23T08:11:49;100898.75;;;22.65;53.49
32638;BME280;19045;52.268;10.506;2022-07-23T08:14:17;100902.97;;;23.09;53.52
32638;BME280;19045;52.268;10.506;2022-07-23T08:16:45;100900.69;;;23.99;51.05
32638;BME280;19045;52.268;10.506;2022-07-23T08:19:11;100905.59;;;24.47;47.63
32638;BME280;19045;52.268;10.506;2022-07-23T08:21:38;100905.50;;;24.23;48.99
32638;BME280;19045;52.268;10.506;2022-07-23T08:24:05;100909.22;;;23.56;49.81
32638;BME280;19045;52.268;10.506;2022-07-23T08:26:32;100913.66;;;23.70;49.67
32638;BME280;19045;52.268;10.506;2022-07-23T08:28:58;100915.91;;;23.38;50.50
32638;BME280;19045;52.268;10.506;2022-07-23T08:31:25;100913.09;;;23.17;51.35
32638;BME280;19045;52.268;10.506;2022-07-23T08:33:53;100915.25;;;23.03;50.85
32638;BME280;19045;52.268;10.506;2022-07-23T08:36:20;100920.16;;;22.81;50.61
32638;BME280;19045;52.268;10.506;2022-07-23T08:38:47;100922.31;;;23.13;51.55
32638;BME280;19045;52.268;10.506;2022-07-23T08:41:14;100920.56;;;23.46;50.11
32638;BME280;19045;52.268;10.506;2022-07-23T08:43:42;100915.34;;;23.53;48.74
32638;BME280;19045;52.268;10.506;2022-07-23T08:46:09;100917.09;;;22.74;51.59
32638;BME280;19045;52.268;10.506;2022-07-23T08:48:36;100915.81;;;22.62;52.07
32638;BME280;19045;52.268;10.506;2022-07-23T08:51:06;100916.44;;;22.85;51.82
32638;BME280;19045;52.268;10.506;2022-07-23T08:53:34;100913.13;;;23.09;50.85
32638;BME280;19045;52.268;10.506;2022-07-23T08:56:06;100923.97;;;23.35;50.60
32638;BME280;19045;52.268;10.506;2022-07-23T08:58:41;100913.66;;;23.70;49.12
32638;BME280;19045;52.268;10.506;2022-07-23T09:01:08;100916.84;;;23.72;48.54
32638;BME280;19045;52.268;10.506;2022-07-23T09:03:37;100919.84;;;23.20;49.62
32638;BME280;19045;52.268;10.506;2022-07-23T09:06:06;100917.03;;;22.99;51.31
32638;BME280;19045;52.268;10.506;2022-07-23T09:08:37;100917.75;;;24.05;49.24
32638;BME280;19045;52.268;10.506;2022-07-23T09:11:08;100910.97;;;24.44;45.54
32638;BME280;19045;52.268;10.506;2022-07-23T09:13:42;100918.56;;;23.26;48.79
32638;BME280;19045;52.268;10.506;2022-07-23T09:16:13;100912.88;;;23.60;47.49
32638;BME280;19045;52.268;10.506;2022-07-23T09:18:43;100910.25;;;23.05;48.32
32638;BME280;19045;52.268;10.506;2022-07-23T09:21:22;100909.59;;;23.46;47.80
32638;BME280;19045;52.268;10.506;2022-07-23T09:23:54;100912.44;;;23.58;48.15
32638;BME280;19045;52.268;10.506;2022-07-23T09:26:26;100904.72;;;22.59;48.19
32638;BME280;19045;52.268;10.506;2022-07-23T09:28:58;100910.09;;;23.02;47.78
32638;BME280;19045;52.268;10.506;2022-07-23T09:31:30;100906.59;;;22.84;48.77
32638;BME280;19045;52.268;10.506;2022-07-23T09:34:07;100909.00;;;24.32;45.22
32638;BME280;19045;52.268;10.506;2022-07-23T09:36:35;100915.06;;;24.38;45.74
32638;BME280;19045;52.268;10.506;2022-07-23T09:39:04;100911.75;;;25.22;44.42
32638;BME280;19045;52.268;10.506;2022-07-23T09:41:36;100912.28;;;25.40;42.36
32638;BME280;19045;52.268;10.506;2022-07-23T09:44:08;100913.13;;;23.47;45.08
32638;BME280;19045;52.268;10.506;2022-07-23T09:46:35;100910.13;;;24.31;44.72
32638;BME280;19045;52.268;10.506;2022-07-23T09:49:14;100918.47;;;25.00;43.58
32638;BME280;19045;52.268;10.506;2022-07-23T09:51:47;100911.59;;;25.43;43.06
32638;BME280;19045;52.268;10.506;2022-07-23T09:54:33;100916.88;;;25.72;42.33
32638;BME280;19045;52.268;10.506;2022-07-23T09:57:03;100914.53;;;25.98;41.97
32638;BME280;19045;52.268;10.506;2022-07-23T09:59:32;100910.28;;;26.41;40.16
32638;BME280;19045;52.268;10.506;2022-07-23T10:02:00;100911.69;;;26.35;39.61
32638;BME280;19045;52.268;10.506;2022-07-23T10:04:28;100909.44;;;25.36;41.36
32638;BME280;19045;52.268;10.506;2022-07-23T10:06:58;100909.00;;;25.58;41.02
32638;BME280;19045;52.268;10.506;2022-07-23T10:09:28;100907.13;;;25.26;42.67
32638;BME280;19045;52.268;10.506;2022-07-23T10:11:56;100904.50;;;24.60;43.48
32638;BME280;19045;52.268;10.506;2022-07-23T10:14:40;100902.69;;;24.64;43.39
32638;BME280;19045;52.268;10.506;2022-07-23T10:17:07;100892.25;;;24.25;43.47
32638;BME280;19045;52.268;10.506;2022-07-23T10:19:36;100891.28;;;24.00;44.55
32638;BME280;19045;52.268;10.506;2022-07-23T10:22:09;100907.22;;;24.07;43.99
32638;BME280;19045;52.268;10.506;2022-07-23T10:24:58;100896.59;;;24.92;42.64
32638;BME280;19045;52.268;10.506;2022-07-23T10:27:39;100896.47;;;25.73;39.86
32638;BME280;19045;52.268;10.506;2022-07-23T10:30:16;100888.47;;;26.36;38.52
32638;BME280;19045;52.268;10.506;2022-07-23T10:32:56;100896.94;;;26.03;39.21
32638;BME280;19045;52.268;10.506;2022-07-23T10:35:32;100904.03;;;26.28;39.43
32638;BME280;19045;52.268;10.506;2022-07-23T10:38:13;100904.56;;;26.77;39.23
32638;BME280;19045;52.268;10.506;2022-07-23T10:40:53;100900.94;;;27.36;37.21
32638;BME280;19045;52.268;10.506;2022-07-23T10:43:21;100889.06;;;27.66;37.01
32638;BME280;19045;52.268;10.506;2022-07-23T10:45:49;100884.66;;;28.00;37.66
32638;BME280;19045;52.268;10.506;2022-07-23T10:48:17;100896.81;;;26.67;38.02
32638;BME280;19045;52.268;10.506;2022-07-23T10:51:06;100894.06;;;26.11;39.66
32638;BME280;19045;52.268;10.506;2022-07-23T10:53:56;100906.09;;;25.43;41.04
32638;BME280;19045;52.268;10.506;2022-07-23T10:56:49;100899.22;;;25.85;40.70
32638;BME280;19045;52.268;10.506;2022-07-23T10:59:17;100898.13;;;25.90;40.17
32638;BME280;19045;52.268;10.506;2022-07-23T11:01:44;100900.38;;;25.60;40.87
32638;BME280;19045;52.268;10.506;2022-07-23T11:04:10;100900.97;;;26.17;40.47
32638;BME280;19045;52.268;10.506;2022-07-23T11:07:06;100900.34;;;26.12;38.72
32638;BME280;19045;52.268;10.506;2022-07-23T11:09:40;100901.63;;;26.42;38.34
32638;BME280;19045;52.268;10.506;2022-07-23T11:12:31;100914.06;;;26.36;38.08
32638;BME280;19045;52.268;10.506;2022-07-23T11:14:59;100903.47;;;25.46;39.83
32638;BME280;19045;52.268;10.506;2022-07-23T11:17:27;100895.53;;;25.81;39.70
32638;BME280;19045;52.268;10.506;2022-07-23T11:20:17;100895.66;;;25.73;39.84
32638;BME280;19045;52.268;10.506;2022-07-23T11:22:49;100907.03;;;25.47;40.61
32638;BME280;19045;52.268;10.506;2022-07-23T11:25:33;100903.72;;;25.53;40.30
32638;BME280;19045;52.268;10.506;2022-07-23T11:28:21;100894.50;;;26.13;39.88
32638;BME280;19045;52.268;10.506;2022-07-23T11:30:51;100894.19;;;26.58;38.21
32638;BME280;19045;52.268;10.506;2022-07-23T11:33:20;100897.50;;;26.08;38.74
32638;BME280;19045;52.268;10.506;2022-07-23T11:35:49;100892.59;;;25.13;40.85
32638;BME280;19045;52.268;10.506;2022-07-23T11:38:18;100903.03;;;25.68;40.04
32638;BME280;19045;52.268;10.506;2022-07-23T11:40:51;100887.88;;;25.75;38.93
32638;BME280;19045;52.268;10.506;2022-07-23T11:43:18;100897.63;;;25.24;41.01
32638;BME280;19045;52.268;10.506;2022-07-23T11:45:47;100898.44;;;25.60;40.43
32638;BME280;19045;52.268;10.506;2022-07-23T11:48:18;100893.72;;;25.73;39.17
32638;BME280;19045;52.268;10.506;2022-07-23T11:50:45;100892.28;;;25.51;39.79
32638;BME280;19045;52.268;10.506;2022-07-23T11:53:13;100884.88;;;25.80;38.30
32638;BME280;19045;52.268;10.506;2022-07-23T11:55:39;100890.25;;;26.16;38.67
32638;BME280;19045;52.268;10.506;2022-07-23T11:58:07;100890.09;;;26.52;38.01
32638;BME280;19045;52.268;10.506;2022-07-23T12:00:34;100893.88;;;26.60;38.11
32638;BME280;19045;52.268;10.506;2022-07-23T12:03:02;100887.75;;;26.39;38.72
32638;BME280;19045;52.268;10.506;2022-07-23T12:05:33;100892.31;;;27.06;37.46
32638;BME280;19045;52.268;10.506;2022-07-23T12:08:02;100896.50;;;26.84;37.36
32638;BME280;19045;52.268;10.506;2022-07-23T12:10:34;100895.88;;;26.91;37.14
32638;BME280;19045;52.268;10.506;2022-07-23T12:13:02;100889.75;;;27.13;37.15
32638;BME280;19045;52.268;10.506;2022-07-23T12:15:33;100887.16;;;27.20;37.04
32638;BME280;19045;52.268;10.506;2022-07-23T12:18:03;100884.41;;;27.70;36.02
32638;BME280;19045;52.268;10.506;2022-07-23T12:20:32;100896.16;;;27.17;36.91
32638;BME280;19045;52.268;10.506;2022-07-23T12:23:00;100894.59;;;27.35;37.18
32638;BME280;19045;52.268;10.506;2022-07-23T12:25:29;100889.25;;;27.42;36.01
32638;BME280;19045;52.268;10.506;2022-07-23T12:28:02;100892.13;;;27.30;36.04
32638;BME280;19045;52.268;10.506;2022-07-23T12:30:33;100883.53;;;27.66;36.52
32638;BME280;19045;52.268;10.506;2022-07-23T12:33:03;100893.88;;;27.89;35.87
32638;BME280;19045;52.268;10.506;2022-07-23T12:35:32;100897.34;;;27.35;36.58
32638;BME280;19045;52.268;10.506;2022-07-23T12:38:01;100888.16;;;26.96;36.96
32638;BME280;19045;52.268;10.506;2022-07-23T12:40:29;100890.44;;;27.26;36.58
32638;BME280;19045;52.268;10.506;2022-07-23T12:42:58;100882.91;;;25.80;38.86
32638;BME280;19045;52.268;10.506;2022-07-23T12:45:25;100885.84;;;26.55;37.96
32638;BME280;19045;52.268;10.506;2022-07-23T12:48:19;100890.63;;;26.02;37.96